createdAt,value
2023-04-02T00:04:16.923Z,62.23
2023-04-02T00:08:23.790Z,62.69
2023-04-02T00:12:28.046Z,62.81
2023-04-02T00:16:33.484Z,63.38
2023-04-02T00:20:43.171Z,64.36
2023-04-02T00:24:46.415Z,65.04
2023-04-02T00:28:49.622Z,65.15
2023-04-02T00:32:54.172Z,65.36
2023-04-02T00:36:58.363Z,65.94
2023-04-02T00:41:04.920Z,65.91
2023-04-02T00:45:19.336Z,66.22
2023-04-02T00:49:31.262Z,66.67
2023-04-02T00:53:37.436Z,66.64
2023-04-02T00:57:43.184Z,67.33
2023-04-02T01:01:46.918Z,67.44
2023-04-02T01:05:57.488Z,67.72
2023-04-02T01:10:16.192Z,67.98
2023-04-02T01:14:26.939Z,67.66
2023-04-02T01:18:46.860Z,67.09
2023-04-02T01:22:57.943Z,67.18
2023-04-02T01:27:03.554Z,67.27
2023-04-02T01:31:08.184Z,67.58
2023-04-02T01:35:12.151Z,67.54
2023-04-02T01:39:40.015Z,67.29
2023-04-02T01:43:52.245Z,67.21
2023-04-02T01:47:57.672Z,66.85
2023-04-02T01:52:01.520Z,66.69
2023-04-02T01:56:07.675Z,66.80
2023-04-02T02:00:16.383Z,66.71
2023-04-02T02:04:20.964Z,65.96
2023-04-02T02:08:34.843Z,65.97
2023-04-02T02:12:37.759Z,65.79
2023-04-02T02:16:43.166Z,65.56
2023-04-02T02:20:48.588Z,65.93
2023-04-02T02:24:52.006Z,65.16
2023-04-02T02:28:58.757Z,65.73
2023-04-02T02:33:09.348Z,65.27
2023-04-02T02:37:17.480Z,65.31
2023-04-02T02:41:26.583Z,65.27
2023-04-02T02:45:35.732Z,65.34
2023-04-02T02:49:42.767Z,65.54
2023-04-02T02:53:53.940Z,65.24
2023-04-02T02:58:01.332Z,64.94
2023-04-02T03:02:07.280Z,65.16
2023-04-02T03:06:17.098Z,65.19
2023-04-02T03:10:29.208Z,65.13
2023-04-02T03:14:37.308Z,65.18
2023-04-02T03:18:47.634Z,65.08
2023-04-02T03:22:59.154Z,64.73
2023-04-02T03:27:08.776Z,65.45
2023-04-02T03:31:19.307Z,65.63
2023-04-02T03:35:29.640Z,65.83
2023-04-02T03:39:37.945Z,65.66
2023-04-02T03:43:47.016Z,65.82
2023-04-02T03:47:55.992Z,66.03
2023-04-02T03:52:04.488Z,65.92
2023-04-02T03:56:08.562Z,66.28
2023-04-02T04:00:20.925Z,66.67
2023-04-02T04:04:27.587Z,66.07
2023-04-02T04:08:38.266Z,65.88
2023-04-02T04:12:45.215Z,65.88
2023-04-02T04:16:54.790Z,65.65
2023-04-02T04:21:03.408Z,65.56
2023-04-02T04:25:19.761Z,65.67
2023-04-02T04:29:39.262Z,65.55
2023-04-02T04:33:50.822Z,65.82
2023-04-02T04:37:59.937Z,65.18
2023-04-02T04:42:07.223Z,65.10
2023-04-02T04:46:15.045Z,65.45
2023-04-02T04:50:30.106Z,65.58
2023-04-02T04:54:33.999Z,65.48
2023-04-02T04:58:45.129Z,65.29
2023-04-02T05:02:53.214Z,64.99
2023-04-02T05:07:05.118Z,65.19
2023-04-02T05:11:13.705Z,64.60
2023-04-02T05:15:21.830Z,64.85
2023-04-02T05:19:32.734Z,64.22
2023-04-02T05:23:46.497Z,64.56
2023-04-02T05:27:56.058Z,64.68
2023-04-02T05:32:04.621Z,64.65
2023-04-02T05:36:11.989Z,64.70
2023-04-02T05:40:24.654Z,64.33
2023-04-02T05:44:31.188Z,63.97
2023-04-02T05:48:39.268Z,64.58
2023-04-02T05:52:47.969Z,64.87
2023-04-02T05:56:57.834Z,64.78
2023-04-02T06:01:18.088Z,65.38
2023-04-02T06:05:25.983Z,64.73
2023-04-02T06:09:48.238Z,64.60
2023-04-02T06:13:52.907Z,63.78
2023-04-02T06:18:02.364Z,64.92
2023-04-02T06:22:18.103Z,65.33
2023-04-02T06:26:28.351Z,64.44
2023-04-02T06:30:36.905Z,65.03
2023-04-02T06:34:42.568Z,65.11
2023-04-02T06:38:46.450Z,65.02
2023-04-02T06:42:52.923Z,65.53
2023-04-02T06:47:00.284Z,65.73
2023-04-02T06:51:08.917Z,64.89
2023-04-02T06:55:30.438Z,65.75
2023-04-02T06:59:33.810Z,66.38
2023-04-02T07:03:38.142Z,65.84
2023-04-02T07:07:41.540Z,66.70
2023-04-02T07:11:44.511Z,65.95
2023-04-02T07:15:49.557Z,65.71
2023-04-02T07:19:53.967Z,65.18
2023-04-02T07:23:57.625Z,66.00
2023-04-02T07:28:01.575Z,65.57
2023-04-02T07:32:04.797Z,65.82
2023-04-02T07:36:13.864Z,65.63
2023-04-02T07:40:20.977Z,66.51
2023-04-02T07:44:24.408Z,66.51
2023-04-02T07:48:27.917Z,66.11
2023-04-02T07:52:33.143Z,65.70
2023-04-02T07:56:37.141Z,65.73
2023-04-02T08:00:40.739Z,65.49
2023-04-02T08:04:44.121Z,65.33
2023-04-02T08:08:49.156Z,65.05
2023-04-02T08:12:52.726Z,65.97
2023-04-02T08:16:57.347Z,65.75
2023-04-02T08:21:01.690Z,66.05
2023-04-02T08:25:07.536Z,66.51
2023-04-02T08:29:11.458Z,66.48
2023-04-02T08:33:17.179Z,66.46
2023-04-02T08:37:25.670Z,65.99
2023-04-02T08:41:32.372Z,65.67
2023-04-02T08:45:48.188Z,65.67
2023-04-02T08:49:58.088Z,66.20
2023-04-02T08:54:09.868Z,66.33
2023-04-02T08:58:29.946Z,67.05
2023-04-02T09:02:43.527Z,66.42
2023-04-02T09:11:04.735Z,64.74
2023-04-02T09:15:20.587Z,65.74
2023-04-02T09:19:26.462Z,66.26
2023-04-02T09:23:29.637Z,64.66
2023-04-02T09:27:34.155Z,65.52
2023-04-02T09:31:43.414Z,65.83
2023-04-02T09:40:17.879Z,65.54
2023-04-02T09:44:24.280Z,65.69
2023-04-02T09:52:38.497Z,65.81
2023-04-02T09:56:43.199Z,66.81
2023-04-02T10:00:56.315Z,66.88
2023-04-02T10:09:33.790Z,67.09
2023-04-02T10:13:53.567Z,67.15
2023-04-02T10:22:13.795Z,67.65
2023-04-02T10:26:46.886Z,68.55
2023-04-02T10:30:59.180Z,68.41
2023-04-02T10:35:05.290Z,68.34
2023-04-02T10:39:15.574Z,69.04
2023-04-02T10:43:59.308Z,69.08
2023-04-02T10:48:17.657Z,69.68
2023-04-02T10:52:25.327Z,69.47
2023-04-02T10:56:37.770Z,69.54
2023-04-02T11:00:50.541Z,70.03
2023-04-02T11:05:01.938Z,69.70
2023-04-02T11:09:08.990Z,69.50
2023-04-02T11:13:19.828Z,68.51
2023-04-02T11:17:23.614Z,67.87
2023-04-02T11:21:57.152Z,68.02
2023-04-02T11:26:38.737Z,68.55
2023-04-02T11:30:43.129Z,67.84
2023-04-02T11:35:21.267Z,67.30
2023-04-02T11:39:57.308Z,66.60
2023-04-02T11:44:04.115Z,66.77
2023-04-02T11:48:31.379Z,66.66
2023-04-02T11:52:51.310Z,66.39
2023-04-02T11:57:13.493Z,66.72
2023-04-02T12:01:53.123Z,65.25
2023-04-02T12:06:04.122Z,65.21
2023-04-02T12:10:24.235Z,65.11
2023-04-02T12:14:54.109Z,64.12
2023-04-02T12:23:33.690Z,65.52
2023-04-02T12:27:49.733Z,65.67
2023-04-02T12:32:23.305Z,66.11
2023-04-02T12:36:56.538Z,65.85
2023-04-02T12:41:04.264Z,66.09
2023-04-02T12:45:54.338Z,66.82
2023-04-02T12:50:08.224Z,66.68
2023-04-02T12:54:26.840Z,67.12
2023-04-02T12:58:49.541Z,67.23
2023-04-02T13:03:14.988Z,66.90
2023-04-02T13:07:23.273Z,66.20
2023-04-02T13:11:35.923Z,66.19
2023-04-02T13:15:39.353Z,65.67
2023-04-02T13:19:42.609Z,66.41
2023-04-02T13:23:47.601Z,66.81
2023-04-02T13:27:51.104Z,67.20
2023-04-02T13:31:57.512Z,67.54
2023-04-02T13:36:00.598Z,68.01
2023-04-02T13:40:09.254Z,68.82
2023-04-02T13:44:28.490Z,68.71
2023-04-02T13:48:32.203Z,69.97
2023-04-02T13:52:36.822Z,70.05
2023-04-02T13:56:43.695Z,69.73
2023-04-02T14:00:48.146Z,69.89
2023-04-02T14:04:54.323Z,70.56
2023-04-02T14:09:07.025Z,69.66
2023-04-02T14:13:23.198Z,67.96
2023-04-02T14:17:36.495Z,68.09
2023-04-02T14:21:51.417Z,68.22
2023-04-02T14:26:03.895Z,68.33
2023-04-02T14:30:18.132Z,68.27
2023-04-02T14:34:32.367Z,67.63
2023-04-02T14:38:40.844Z,68.28
2023-04-02T14:42:49.310Z,69.11
2023-04-02T14:46:57.859Z,69.07
2023-04-02T14:51:06.943Z,69.74
2023-04-02T14:55:15.677Z,70.12
2023-04-02T14:59:27.882Z,70.29
2023-04-02T15:03:37.959Z,70.47
2023-04-02T15:07:46.580Z,70.56
2023-04-02T15:11:53.258Z,70.65
2023-04-02T15:16:00.531Z,70.45
2023-04-02T15:20:14.959Z,70.11
2023-04-02T15:24:28.290Z,70.95
2023-04-02T15:28:37.327Z,71.04
2023-04-02T15:32:41.871Z,70.41
2023-04-02T15:37:06.536Z,70.17
2023-04-02T15:41:16.819Z,70.18
2023-04-02T15:45:28.562Z,70.99
2023-04-02T15:49:44.339Z,70.18
2023-04-02T15:53:57.996Z,70.32
2023-04-02T15:58:26.585Z,70.86
2023-04-02T16:02:58.809Z,71.13
2023-04-02T16:07:20.084Z,71.03
2023-04-02T16:11:27.647Z,70.78
2023-04-02T16:15:38.264Z,71.03
2023-04-02T16:19:46.502Z,70.43
2023-04-02T16:23:50.638Z,70.30
2023-04-02T16:28:06.931Z,70.43
2023-04-02T16:32:22.116Z,70.67
2023-04-02T16:36:36.657Z,70.62
2023-04-02T16:40:57.083Z,70.43
2023-04-02T16:45:19.174Z,70.57
2023-04-02T16:49:36.553Z,70.62
2023-04-02T16:54:00.611Z,70.01
2023-04-02T16:58:21.075Z,70.90
2023-04-02T17:02:40.092Z,70.43
2023-04-02T17:06:45.032Z,70.11
2023-04-02T17:10:52.380Z,70.01
2023-04-02T17:15:00.190Z,69.82
2023-04-02T17:19:15.700Z,69.65
2023-04-02T17:23:22.181Z,69.23
2023-04-02T17:27:29.613Z,69.92
2023-04-02T17:31:37.621Z,69.77
2023-04-02T17:35:54.059Z,69.95
2023-04-02T17:40:10.157Z,69.38
2023-04-02T17:44:29.675Z,69.39
2023-04-02T17:48:42.563Z,68.57
2023-04-02T17:52:53.291Z,69.87
2023-04-02T17:57:16.885Z,68.70
2023-04-02T18:01:26.662Z,68.58
2023-04-02T18:05:33.052Z,68.59
2023-04-02T18:09:45.703Z,68.08
2023-04-02T18:13:55.592Z,67.88
2023-04-02T18:18:08.461Z,67.32
2023-04-02T18:22:18.865Z,68.10
2023-04-02T18:26:34.358Z,67.37
2023-04-02T18:30:42.179Z,67.84
2023-04-02T18:35:00.140Z,67.10
2023-04-02T18:39:16.456Z,66.20
2023-04-02T18:43:38.437Z,67.49
2023-04-02T18:47:53.021Z,67.16
2023-04-02T18:52:01.062Z,66.77
2023-04-02T18:56:09.667Z,65.29
2023-04-02T19:00:30.168Z,67.00
2023-04-02T19:04:36.805Z,65.74
2023-04-02T19:08:49.554Z,66.48
2023-04-02T19:12:53.736Z,65.80
2023-04-02T19:17:15.183Z,67.12
2023-04-02T19:21:28.347Z,65.58
2023-04-02T19:25:47.863Z,66.08
2023-04-02T19:30:04.058Z,66.35
2023-04-02T19:34:21.603Z,65.92
2023-04-02T19:38:51.009Z,64.89
2023-04-02T19:42:55.567Z,64.50
2023-04-02T19:46:59.620Z,64.42
2023-04-02T19:51:04.297Z,64.49
2023-04-02T19:55:08.787Z,63.50
2023-04-02T19:59:18.047Z,62.74
2023-04-02T20:03:23.974Z,63.06
2023-04-02T20:07:28.561Z,63.77
2023-04-02T20:11:33.070Z,63.88
2023-04-02T20:15:37.387Z,63.14
2023-04-02T20:19:41.454Z,63.98
2023-04-02T20:23:46.380Z,63.32
2023-04-02T20:27:49.736Z,63.61
2023-04-02T20:31:53.750Z,64.11
2023-04-02T20:36:05.441Z,64.36
2023-04-02T20:40:12.415Z,63.62
2023-04-02T20:44:16.236Z,63.96
2023-04-02T20:48:22.436Z,64.28
2023-04-02T20:52:26.575Z,64.04
2023-04-02T20:56:32.980Z,64.08
2023-04-02T21:00:36.512Z,64.06
2023-04-02T21:04:39.756Z,64.31
2023-04-02T21:08:43.952Z,64.30
2023-04-02T21:12:49.853Z,64.27
2023-04-02T21:16:53.797Z,64.06
2023-04-02T21:21:01.836Z,64.33
2023-04-02T21:25:06.068Z,64.49
2023-04-02T21:29:12.679Z,64.49
2023-04-02T21:33:16.226Z,64.50
2023-04-02T21:37:19.516Z,64.88
2023-04-02T21:41:24.910Z,64.94
2023-04-02T21:45:29.861Z,64.81
2023-04-02T21:49:33.400Z,63.84
2023-04-02T21:53:37.239Z,65.06
2023-04-02T21:57:41.251Z,64.94
2023-04-02T22:01:47.476Z,65.50
2023-04-02T22:05:50.860Z,64.88
2023-04-02T22:09:53.887Z,65.17
2023-04-02T22:13:57.583Z,64.75
2023-04-02T22:18:02.213Z,64.63
2023-04-02T22:22:06.351Z,65.24
2023-04-02T22:26:10.286Z,64.89
2023-04-02T22:30:14.780Z,65.12
2023-04-02T22:34:19.866Z,65.29
2023-04-02T22:38:23.118Z,65.22
2023-04-02T22:42:26.968Z,64.82
2023-04-02T22:46:32.172Z,65.20
2023-04-02T22:50:37.089Z,65.85
2023-04-02T22:54:40.975Z,65.64
2023-04-02T22:58:45.010Z,65.50
2023-04-02T23:02:49.228Z,65.86
2023-04-02T23:06:54.209Z,65.56
2023-04-02T23:11:03.703Z,65.79
2023-04-02T23:15:08.260Z,65.68
2023-04-02T23:19:12.336Z,66.58
2023-04-02T23:23:17.029Z,66.06
2023-04-02T23:27:21.802Z,66.42
2023-04-02T23:31:25.646Z,67.13
2023-04-02T23:35:29.717Z,67.16
2023-04-02T23:39:34.216Z,66.29
2023-04-02T23:43:37.577Z,66.79
2023-04-02T23:47:40.706Z,67.27
2023-04-02T23:51:44.479Z,66.93
2023-04-02T23:55:48.885Z,66.54
2023-04-02T23:59:53.031Z,66.15
